sensor_id;sensor_type;location;lat;lon;timestamp;P1;durP1;ratioP1;P2;durP2;ratioP2
56718;SDS011;42597;40.636;0.278;2023-04-03T00:01:27;2.88;;;1.40;;
56718;SDS011;42597;40.636;0.278;2023-04-03T00:03:54;2.55;;;0.88;;
56718;SDS011;42597;40.636;0.278;2023-04-03T00:06:20;2.88;;;1.08;;
56718;SDS011;42597;40.636;0.278;2023-04-03T00:08:46;2.85;;;1.17;;
56718;SDS011;42597;40.636;0.278;2023-04-03T00:11:13;4.90;;;1.17;;
56718;SDS011;42597;40.636;0.278;2023-04-03T00:13:39;3.38;;;0.98;;
56718;SDS011;42597;40.636;0.278;2023-04-03T00:16:05;3.35;;;0.98;;
56718;SDS011;42597;40.636;0.278;2023-04-03T00:18:32;2.60;;;0.95;;
56718;SDS011;42597;40.636;0.278;2023-04-03T00:20:58;3.05;;;0.88;;
56718;SDS011;42597;40.636;0.278;2023-04-03T00:23:24;5.68;;;1.50;;
56718;SDS011;42597;40.636;0.278;2023-04-03T00:25:50;1.75;;;0.60;;
56718;SDS011;42597;40.636;0.278;2023-04-03T00:28:17;5.05;;;1.48;;
56718;SDS011;42597;40.636;0.278;2023-04-03T00:30:43;5.13;;;1.30;;
56718;SDS011;42597;40.636;0.278;2023-04-03T00:33:10;1.08;;;0.52;;
56718;SDS011;42597;40.636;0.278;2023-04-03T00:35:38;1.55;;;0.70;;
56718;SDS011;42597;40.636;0.278;2023-04-03T00:38:04;5.05;;;1.30;;
56718;SDS011;42597;40.636;0.278;2023-04-03T00:40:33;2.70;;;1.05;;
56718;SDS011;42597;40.636;0.278;2023-04-03T00:43:00;3.58;;;1.73;;
56718;SDS011;42597;40.636;0.278;2023-04-03T00:45:30;3.47;;;1.10;;
56718;SDS011;42597;40.636;0.278;2023-04-03T00:47:58;2.58;;;0.75;;
56718;SDS011;42597;40.636;0.278;2023-04-03T00:50:27;2.20;;;0.80;;
56718;SDS011;42597;40.636;0.278;2023-04-03T00:52:55;1.60;;;0.68;;
56718;SDS011;42597;40.636;0.278;2023-04-03T00:55:21;0.98;;;0.60;;
56718;SDS011;42597;40.636;0.278;2023-04-03T00:57:47;1.95;;;0.88;;
56718;SDS011;42597;40.636;0.278;2023-04-03T01:00:15;2.47;;;0.95;;
56718;SDS011;42597;40.636;0.278;2023-04-03T01:02:43;3.05;;;1.23;;
56718;SDS011;42597;40.636;0.278;2023-04-03T01:05:10;1.80;;;0.85;;
56718;SDS011;42597;40.636;0.278;2023-04-03T01:07:37;4.88;;;0.85;;
56718;SDS011;42597;40.636;0.278;2023-04-03T01:10:08;7.47;;;1.17;;
56718;SDS011;42597;40.636;0.278;2023-04-03T01:12:39;1.20;;;0.85;;
56718;SDS011;42597;40.636;0.278;2023-04-03T01:15:09;4.43;;;1.45;;
56718;SDS011;42597;40.636;0.278;2023-04-03T01:17:42;3.08;;;0.93;;
56718;SDS011;42597;40.636;0.278;2023-04-03T01:25:45;2.65;;;0.68;;
56718;SDS011;42597;40.636;0.278;2023-04-03T01:28:15;3.03;;;1.30;;
56718;SDS011;42597;40.636;0.278;2023-04-03T01:33:34;5.68;;;1.02;;
56718;SDS011;42597;40.636;0.278;2023-04-03T01:36:00;2.92;;;1.15;;
56718;SDS011;42597;40.636;0.278;2023-04-03T01:38:26;2.05;;;0.90;;
56718;SDS011;42597;40.636;0.278;2023-04-03T01:40:52;2.47;;;0.80;;
56718;SDS011;42597;40.636;0.278;2023-04-03T01:43:18;2.85;;;0.95;;
56718;SDS011;42597;40.636;0.278;2023-04-03T01:45:44;3.85;;;1.48;;
56718;SDS011;42597;40.636;0.278;2023-04-03T01:48:11;1.92;;;0.93;;
56718;SDS011;42597;40.636;0.278;2023-04-03T01:50:38;3.22;;;1.10;;
56718;SDS011;42597;40.636;0.278;2023-04-03T01:53:04;2.45;;;0.82;;
56718;SDS011;42597;40.636;0.278;2023-04-03T01:55:30;2.45;;;0.80;;
56718;SDS011;42597;40.636;0.278;2023-04-03T01:57:55;4.00;;;1.15;;
56718;SDS011;42597;40.636;0.278;2023-04-03T02:00:21;2.90;;;1.10;;
56718;SDS011;42597;40.636;0.278;2023-04-03T02:02:47;1.17;;;0.63;;
56718;SDS011;42597;40.636;0.278;2023-04-03T02:05:12;2.13;;;1.02;;
56718;SDS011;42597;40.636;0.278;2023-04-03T02:07:38;5.82;;;1.85;;
56718;SDS011;42597;40.636;0.278;2023-04-03T02:10:04;5.20;;;1.55;;
56718;SDS011;42597;40.636;0.278;2023-04-03T02:12:30;3.08;;;0.80;;
56718;SDS011;42597;40.636;0.278;2023-04-03T02:14:56;2.08;;;0.82;;
56718;SDS011;42597;40.636;0.278;2023-04-03T02:17:21;2.88;;;1.27;;
56718;SDS011;42597;40.636;0.278;2023-04-03T02:19:47;2.85;;;1.00;;
56718;SDS011;42597;40.636;0.278;2023-04-03T02:22:13;2.97;;;0.98;;
56718;SDS011;42597;40.636;0.278;2023-04-03T02:24:38;1.73;;;1.00;;
56718;SDS011;42597;40.636;0.278;2023-04-03T02:27:05;2.78;;;1.48;;
56718;SDS011;42597;40.636;0.278;2023-04-03T02:29:31;2.15;;;0.93;;
56718;SDS011;42597;40.636;0.278;2023-04-03T02:31:56;2.10;;;0.80;;
56718;SDS011;42597;40.636;0.278;2023-04-03T02:34:22;2.50;;;0.82;;
56718;SDS011;42597;40.636;0.278;2023-04-03T02:36:48;4.38;;;1.00;;
56718;SDS011;42597;40.636;0.278;2023-04-03T02:39:14;2.33;;;0.80;;
56718;SDS011;42597;40.636;0.278;2023-04-03T02:41:40;4.97;;;1.45;;
56718;SDS011;42597;40.636;0.278;2023-04-03T02:44:06;2.30;;;1.17;;
56718;SDS011;42597;40.636;0.278;2023-04-03T02:46:35;3.33;;;1.30;;
56718;SDS011;42597;40.636;0.278;2023-04-03T02:49:00;6.60;;;1.00;;
56718;SDS011;42597;40.636;0.278;2023-04-03T02:51:27;4.22;;;1.35;;
56718;SDS011;42597;40.636;0.278;2023-04-03T02:53:53;2.15;;;0.80;;
56718;SDS011;42597;40.636;0.278;2023-04-03T02:56:18;2.40;;;0.68;;
56718;SDS011;42597;40.636;0.278;2023-04-03T02:58:45;1.38;;;0.47;;
56718;SDS011;42597;40.636;0.278;2023-04-03T03:01:11;2.72;;;0.82;;
56718;SDS011;42597;40.636;0.278;2023-04-03T03:03:37;2.63;;;0.82;;
56718;SDS011;42597;40.636;0.278;2023-04-03T03:08:35;3.20;;;0.77;;
56718;SDS011;42597;40.636;0.278;2023-04-03T03:11:02;1.58;;;0.70;;
56718;SDS011;42597;40.636;0.278;2023-04-03T03:13:28;1.38;;;0.60;;
56718;SDS011;42597;40.636;0.278;2023-04-03T03:15:54;1.83;;;0.50;;
56718;SDS011;42597;40.636;0.278;2023-04-03T03:18:20;4.00;;;1.50;;
56718;SDS011;42597;40.636;0.278;2023-04-03T03:20:46;3.53;;;0.85;;
56718;SDS011;42597;40.636;0.278;2023-04-03T03:23:17;2.10;;;0.85;;
56718;SDS011;42597;40.636;0.278;2023-04-03T03:25:42;1.77;;;0.80;;
56718;SDS011;42597;40.636;0.278;2023-04-03T03:28:08;2.15;;;0.93;;
56718;SDS011;42597;40.636;0.278;2023-04-03T03:30:34;2.70;;;1.23;;
56718;SDS011;42597;40.636;0.278;2023-04-03T03:33:00;2.50;;;1.00;;
56718;SDS011;42597;40.636;0.278;2023-04-03T03:35:26;3.28;;;0.77;;
56718;SDS011;42597;40.636;0.278;2023-04-03T03:37:52;2.38;;;0.82;;
56718;SDS011;42597;40.636;0.278;2023-04-03T03:40:18;0.50;;;0.47;;
56718;SDS011;42597;40.636;0.278;2023-04-03T03:42:43;3.30;;;1.15;;
56718;SDS011;42597;40.636;0.278;2023-04-03T03:45:09;5.80;;;0.95;;
56718;SDS011;42597;40.636;0.278;2023-04-03T03:47:35;1.58;;;1.00;;
56718;SDS011;42597;40.636;0.278;2023-04-03T03:50:01;4.78;;;1.08;;
56718;SDS011;42597;40.636;0.278;2023-04-03T03:52:27;1.75;;;0.50;;
56718;SDS011;42597;40.636;0.278;2023-04-03T03:54:55;4.88;;;0.82;;
56718;SDS011;42597;40.636;0.278;2023-04-03T03:57:21;1.70;;;0.90;;
56718;SDS011;42597;40.636;0.278;2023-04-03T03:59:46;2.88;;;0.70;;
56718;SDS011;42597;40.636;0.278;2023-04-03T04:02:14;2.53;;;0.82;;
56718;SDS011;42597;40.636;0.278;2023-04-03T04:04:40;4.40;;;0.80;;
56718;SDS011;42597;40.636;0.278;2023-04-03T04:07:05;2.83;;;1.10;;
56718;SDS011;42597;40.636;0.278;2023-04-03T04:09:31;3.05;;;0.90;;
56718;SDS011;42597;40.636;0.278;2023-04-03T04:11:57;2.60;;;1.33;;
56718;SDS011;42597;40.636;0.278;2023-04-03T04:14:23;2.88;;;1.33;;
56718;SDS011;42597;40.636;0.278;2023-04-03T04:16:48;1.10;;;0.50;;
56718;SDS011;42597;40.636;0.278;2023-04-03T04:19:14;1.73;;;0.70;;
56718;SDS011;42597;40.636;0.278;2023-04-03T04:21:40;2.90;;;0.65;;
56718;SDS011;42597;40.636;0.278;2023-04-03T04:24:06;1.08;;;0.85;;
56718;SDS011;42597;40.636;0.278;2023-04-03T04:26:33;1.58;;;0.70;;
56718;SDS011;42597;40.636;0.278;2023-04-03T04:28:59;3.40;;;1.55;;
56718;SDS011;42597;40.636;0.278;2023-04-03T04:31:25;2.55;;;0.98;;
56718;SDS011;42597;40.636;0.278;2023-04-03T04:33:51;0.85;;;0.43;;
56718;SDS011;42597;40.636;0.278;2023-04-03T04:36:17;3.63;;;1.00;;
56718;SDS011;42597;40.636;0.278;2023-04-03T04:38:43;5.78;;;1.38;;
56718;SDS011;42597;40.636;0.278;2023-04-03T04:41:09;2.60;;;0.80;;
56718;SDS011;42597;40.636;0.278;2023-04-03T04:43:35;2.50;;;1.27;;
56718;SDS011;42597;40.636;0.278;2023-04-03T04:46:02;1.00;;;0.75;;
56718;SDS011;42597;40.636;0.278;2023-04-03T04:48:30;0.98;;;0.52;;
56718;SDS011;42597;40.636;0.278;2023-04-03T04:50:55;1.33;;;0.63;;
56718;SDS011;42597;40.636;0.278;2023-04-03T04:53:21;2.50;;;0.98;;
56718;SDS011;42597;40.636;0.278;2023-04-03T04:55:47;2.80;;;1.00;;
56718;SDS011;42597;40.636;0.278;2023-04-03T04:58:13;5.32;;;1.35;;
56718;SDS011;42597;40.636;0.278;2023-04-03T05:00:39;2.42;;;1.08;;
56718;SDS011;42597;40.636;0.278;2023-04-03T05:03:05;2.50;;;0.85;;
56718;SDS011;42597;40.636;0.278;2023-04-03T05:05:30;6.72;;;1.17;;
56718;SDS011;42597;40.636;0.278;2023-04-03T05:07:56;1.55;;;0.95;;
56718;SDS011;42597;40.636;0.278;2023-04-03T05:10:22;2.20;;;0.77;;
56718;SDS011;42597;40.636;0.278;2023-04-03T05:12:48;2.30;;;0.82;;
56718;SDS011;42597;40.636;0.278;2023-04-03T05:15:13;4.68;;;1.45;;
56718;SDS011;42597;40.636;0.278;2023-04-03T05:17:39;2.25;;;0.63;;
56718;SDS011;42597;40.636;0.278;2023-04-03T05:20:05;2.90;;;0.98;;
56718;SDS011;42597;40.636;0.278;2023-04-03T05:22:31;6.68;;;1.17;;
56718;SDS011;42597;40.636;0.278;2023-04-03T05:24:57;1.95;;;0.65;;
56718;SDS011;42597;40.636;0.278;2023-04-03T05:27:23;0.68;;;0.65;;
56718;SDS011;42597;40.636;0.278;2023-04-03T05:29:49;4.10;;;1.30;;
56718;SDS011;42597;40.636;0.278;2023-04-03T05:32:17;5.07;;;1.23;;
56718;SDS011;42597;40.636;0.278;2023-04-03T05:34:43;2.70;;;1.00;;
56718;SDS011;42597;40.636;0.278;2023-04-03T05:37:09;2.90;;;1.02;;
56718;SDS011;42597;40.636;0.278;2023-04-03T05:39:34;2.30;;;0.80;;
56718;SDS011;42597;40.636;0.278;2023-04-03T05:42:00;3.25;;;1.52;;
56718;SDS011;42597;40.636;0.278;2023-04-03T05:44:26;7.00;;;1.80;;
56718;SDS011;42597;40.636;0.278;2023-04-03T05:46:52;6.38;;;2.47;;
56718;SDS011;42597;40.636;0.278;2023-04-03T05:49:17;6.03;;;2.55;;
56718;SDS011;42597;40.636;0.278;2023-04-03T05:51:43;12.85;;;5.10;;
56718;SDS011;42597;40.636;0.278;2023-04-03T05:56:48;10.55;;;5.13;;
56718;SDS011;42597;40.636;0.278;2023-04-03T05:59:15;10.13;;;4.00;;
56718;SDS011;42597;40.636;0.278;2023-04-03T06:01:41;21.33;;;9.23;;
56718;SDS011;42597;40.636;0.278;2023-04-03T06:04:07;12.43;;;6.07;;
56718;SDS011;42597;40.636;0.278;2023-04-03T06:06:53;9.30;;;4.65;;
56718;SDS011;42597;40.636;0.278;2023-04-03T06:09:23;5.78;;;2.75;;
56718;SDS011;42597;40.636;0.278;2023-04-03T06:11:51;9.82;;;3.85;;
56718;SDS011;42597;40.636;0.278;2023-04-03T06:14:18;12.55;;;5.03;;
56718;SDS011;42597;40.636;0.278;2023-04-03T06:16:44;4.80;;;1.63;;
56718;SDS011;42597;40.636;0.278;2023-04-03T06:19:10;10.68;;;3.80;;
56718;SDS011;42597;40.636;0.278;2023-04-03T06:21:37;12.07;;;3.30;;
56718;SDS011;42597;40.636;0.278;2023-04-03T06:24:03;3.97;;;2.03;;
56718;SDS011;42597;40.636;0.278;2023-04-03T06:26:30;6.55;;;2.88;;
56718;SDS011;42597;40.636;0.278;2023-04-03T06:28:56;11.75;;;6.20;;
56718;SDS011;42597;40.636;0.278;2023-04-03T06:31:21;8.40;;;2.47;;
56718;SDS011;42597;40.636;0.278;2023-04-03T06:33:47;8.35;;;4.15;;
56718;SDS011;42597;40.636;0.278;2023-04-03T06:36:13;6.15;;;2.92;;
56718;SDS011;42597;40.636;0.278;2023-04-03T06:38:39;5.25;;;2.83;;
56718;SDS011;42597;40.636;0.278;2023-04-03T06:41:04;8.80;;;3.17;;
56718;SDS011;42597;40.636;0.278;2023-04-03T06:43:31;9.82;;;4.22;;
56718;SDS011;42597;40.636;0.278;2023-04-03T06:45:57;5.60;;;2.80;;
56718;SDS011;42597;40.636;0.278;2023-04-03T06:48:23;10.20;;;5.03;;
56718;SDS011;42597;40.636;0.278;2023-04-03T06:50:48;7.97;;;2.50;;
56718;SDS011;42597;40.636;0.278;2023-04-03T06:53:14;9.85;;;3.88;;
56718;SDS011;42597;40.636;0.278;2023-04-03T06:55:40;7.40;;;3.38;;
56718;SDS011;42597;40.636;0.278;2023-04-03T06:58:06;8.38;;;3.50;;
56718;SDS011;42597;40.636;0.278;2023-04-03T07:00:33;6.43;;;3.15;;
56718;SDS011;42597;40.636;0.278;2023-04-03T07:02:59;4.90;;;2.28;;
56718;SDS011;42597;40.636;0.278;2023-04-03T07:05:25;7.20;;;3.63;;
56718;SDS011;42597;40.636;0.278;2023-04-03T07:07:51;9.30;;;3.90;;
56718;SDS011;42597;40.636;0.278;2023-04-03T07:10:18;13.00;;;5.68;;
56718;SDS011;42597;40.636;0.278;2023-04-03T07:12:44;10.30;;;4.55;;
56718;SDS011;42597;40.636;0.278;2023-04-03T07:15:10;8.40;;;3.60;;
56718;SDS011;42597;40.636;0.278;2023-04-03T07:17:38;9.32;;;4.93;;
56718;SDS011;42597;40.636;0.278;2023-04-03T07:20:04;6.00;;;2.45;;
56718;SDS011;42597;40.636;0.278;2023-04-03T07:22:30;12.00;;;5.28;;
56718;SDS011;42597;40.636;0.278;2023-04-03T07:24:56;11.38;;;5.22;;
56718;SDS011;42597;40.636;0.278;2023-04-03T07:27:24;4.25;;;1.92;;
56718;SDS011;42597;40.636;0.278;2023-04-03T07:29:50;8.40;;;3.50;;
56718;SDS011;42597;40.636;0.278;2023-04-03T07:32:16;10.38;;;5.13;;
56718;SDS011;42597;40.636;0.278;2023-04-03T07:34:42;9.18;;;4.40;;
56718;SDS011;42597;40.636;0.278;2023-04-03T07:37:08;5.05;;;2.75;;
56718;SDS011;42597;40.636;0.278;2023-04-03T07:39:34;5.63;;;2.45;;
56718;SDS011;42597;40.636;0.278;2023-04-03T07:42:00;11.65;;;4.80;;
56718;SDS011;42597;40.636;0.278;2023-04-03T07:44:27;8.25;;;3.35;;
56718;SDS011;42597;40.636;0.278;2023-04-03T07:46:53;10.43;;;4.97;;
56718;SDS011;42597;40.636;0.278;2023-04-03T07:49:22;2.72;;;0.90;;
56718;SDS011;42597;40.636;0.278;2023-04-03T07:51:49;7.25;;;3.75;;
56718;SDS011;42597;40.636;0.278;2023-04-03T07:54:15;5.75;;;2.88;;
56718;SDS011;42597;40.636;0.278;2023-04-03T07:56:41;4.90;;;2.20;;
56718;SDS011;42597;40.636;0.278;2023-04-03T07:59:08;6.82;;;3.38;;
56718;SDS011;42597;40.636;0.278;2023-04-03T08:01:35;5.72;;;2.15;;
56718;SDS011;42597;40.636;0.278;2023-04-03T08:04:01;7.05;;;2.40;;
56718;SDS011;42597;40.636;0.278;2023-04-03T08:06:27;15.73;;;7.72;;
56718;SDS011;42597;40.636;0.278;2023-04-03T08:08:54;5.50;;;2.47;;
56718;SDS011;42597;40.636;0.278;2023-04-03T08:11:21;5.35;;;2.47;;
56718;SDS011;42597;40.636;0.278;2023-04-03T08:13:48;8.38;;;2.28;;
56718;SDS011;42597;40.636;0.278;2023-04-03T08:16:18;6.85;;;3.75;;
56718;SDS011;42597;40.636;0.278;2023-04-03T08:18:47;5.72;;;2.40;;
56718;SDS011;42597;40.636;0.278;2023-04-03T08:21:13;7.38;;;3.53;;
56718;SDS011;42597;40.636;0.278;2023-04-03T08:23:39;7.05;;;2.42;;
56718;SDS011;42597;40.636;0.278;2023-04-03T08:26:11;5.18;;;2.47;;
56718;SDS011;42597;40.636;0.278;2023-04-03T08:28:38;4.05;;;1.90;;
56718;SDS011;42597;40.636;0.278;2023-04-03T08:31:05;3.05;;;1.52;;
56718;SDS011;42597;40.636;0.278;2023-04-03T08:33:34;4.15;;;1.98;;
56718;SDS011;42597;40.636;0.278;2023-04-03T08:36:02;4.97;;;1.85;;
56718;SDS011;42597;40.636;0.278;2023-04-03T08:38:32;2.67;;;1.30;;
56718;SDS011;42597;40.636;0.278;2023-04-03T08:41:15;6.40;;;2.35;;
56718;SDS011;42597;40.636;0.278;2023-04-03T08:46:35;3.58;;;1.50;;
56718;SDS011;42597;40.636;0.278;2023-04-03T08:49:16;5.68;;;2.05;;
56718;SDS011;42597;40.636;0.278;2023-04-03T08:51:53;6.85;;;2.10;;
56718;SDS011;42597;40.636;0.278;2023-04-03T08:54:23;5.13;;;2.28;;
56718;SDS011;42597;40.636;0.278;2023-04-03T08:56:55;4.95;;;1.98;;
56718;SDS011;42597;40.636;0.278;2023-04-03T08:59:25;7.07;;;3.38;;
56718;SDS011;42597;40.636;0.278;2023-04-03T09:01:54;5.15;;;1.85;;
56718;SDS011;42597;40.636;0.278;2023-04-03T09:04:21;7.38;;;3.50;;
56718;SDS011;42597;40.636;0.278;2023-04-03T09:06:51;5.95;;;2.70;;
56718;SDS011;42597;40.636;0.278;2023-04-03T09:12:27;5.25;;;2.00;;
56718;SDS011;42597;40.636;0.278;2023-04-03T09:22:56;3.28;;;1.67;;
56718;SDS011;42597;40.636;0.278;2023-04-03T09:25:23;4.68;;;2.22;;
56718;SDS011;42597;40.636;0.278;2023-04-03T09:27:52;5.35;;;2.00;;
56718;SDS011;42597;40.636;0.278;2023-04-03T09:30:19;7.18;;;2.70;;
56718;SDS011;42597;40.636;0.278;2023-04-03T09:37:47;5.45;;;2.10;;
56718;SDS011;42597;40.636;0.278;2023-04-03T09:43:00;5.35;;;2.33;;
56718;SDS011;42597;40.636;0.278;2023-04-03T09:51:00;3.90;;;2.03;;
56718;SDS011;42597;40.636;0.278;2023-04-03T09:53:38;7.22;;;4.53;;
56718;SDS011;42597;40.636;0.278;2023-04-03T09:58:44;6.03;;;3.03;;
56718;SDS011;42597;40.636;0.278;2023-04-03T10:01:33;5.03;;;2.58;;
56718;SDS011;42597;40.636;0.278;2023-04-03T10:06:37;2.72;;;1.10;;
56718;SDS011;42597;40.636;0.278;2023-04-03T10:09:27;2.65;;;1.13;;
56718;SDS011;42597;40.636;0.278;2023-04-03T10:12:06;3.22;;;1.52;;
56718;SDS011;42597;40.636;0.278;2023-04-03T10:19:46;2.35;;;1.30;;
56718;SDS011;42597;40.636;0.278;2023-04-03T10:30:31;2.53;;;1.40;;
56718;SDS011;42597;40.636;0.278;2023-04-03T10:33:08;2.08;;;1.05;;
56718;SDS011;42597;40.636;0.278;2023-04-03T10:35:50;2.47;;;1.35;;
56718;SDS011;42597;40.636;0.278;2023-04-03T10:46:33;4.68;;;1.13;;
56718;SDS011;42597;40.636;0.278;2023-04-03T10:49:25;2.08;;;1.17;;
56718;SDS011;42597;40.636;0.278;2023-04-03T10:52:01;4.30;;;1.42;;
56718;SDS011;42597;40.636;0.278;2023-04-03T10:57:28;3.08;;;1.23;;
56718;SDS011;42597;40.636;0.278;2023-04-03T11:02:48;2.15;;;1.13;;
56718;SDS011;42597;40.636;0.278;2023-04-03T11:05:29;2.15;;;1.08;;
56718;SDS011;42597;40.636;0.278;2023-04-03T11:07:56;1.67;;;0.95;;
56718;SDS011;42597;40.636;0.278;2023-04-03T11:13:35;5.10;;;1.65;;
56718;SDS011;42597;40.636;0.278;2023-04-03T11:16:03;3.00;;;1.23;;
56718;SDS011;42597;40.636;0.278;2023-04-03T11:18:41;2.75;;;0.80;;
56718;SDS011;42597;40.636;0.278;2023-04-03T11:24:05;1.52;;;1.00;;
56718;SDS011;42597;40.636;0.278;2023-04-03T11:26:47;1.08;;;0.90;;
56718;SDS011;42597;40.636;0.278;2023-04-03T11:29:17;3.83;;;1.10;;
56718;SDS011;42597;40.636;0.278;2023-04-03T11:34:29;8.30;;;1.85;;
56718;SDS011;42597;40.636;0.278;2023-04-03T11:37:50;5.38;;;1.98;;
56718;SDS011;42597;40.636;0.278;2023-04-03T11:40:25;2.65;;;1.30;;
56718;SDS011;42597;40.636;0.278;2023-04-03T11:42:55;1.35;;;0.85;;
56718;SDS011;42597;40.636;0.278;2023-04-03T11:50:44;2.80;;;1.13;;
56718;SDS011;42597;40.636;0.278;2023-04-03T12:13:37;2.35;;;0.88;;
56718;SDS011;42597;40.636;0.278;2023-04-03T12:16:06;2.33;;;1.30;;
56718;SDS011;42597;40.636;0.278;2023-04-03T12:24:03;2.63;;;1.15;;
56718;SDS011;42597;40.636;0.278;2023-04-03T12:27:01;1.38;;;0.70;;
56718;SDS011;42597;40.636;0.278;2023-04-03T12:29:43;1.15;;;0.73;;
56718;SDS011;42597;40.636;0.278;2023-04-03T12:44:18;3.00;;;1.08;;
56718;SDS011;42597;40.636;0.278;2023-04-03T12:47:08;2.40;;;0.75;;
56718;SDS011;42597;40.636;0.278;2023-04-03T12:49:47;2.33;;;0.82;;
56718;SDS011;42597;40.636;0.278;2023-04-03T12:54:50;1.98;;;0.90;;
56718;SDS011;42597;40.636;0.278;2023-04-03T12:57:26;1.27;;;0.70;;
56718;SDS011;42597;40.636;0.278;2023-04-03T12:59:54;2.85;;;1.00;;
56718;SDS011;42597;40.636;0.278;2023-04-03T13:04:52;1.92;;;0.80;;
56718;SDS011;42597;40.636;0.278;2023-04-03T13:07:27;4.00;;;0.82;;
56718;SDS011;42597;40.636;0.278;2023-04-03T13:15:24;1.10;;;0.40;;
56718;SDS011;42597;40.636;0.278;2023-04-03T13:17:53;1.65;;;0.80;;
56718;SDS011;42597;40.636;0.278;2023-04-03T13:22:49;2.47;;;0.93;;
56718;SDS011;42597;40.636;0.278;2023-04-03T13:25:22;2.08;;;0.75;;
56718;SDS011;42597;40.636;0.278;2023-04-03T13:27:49;4.13;;;0.93;;
56718;SDS011;42597;40.636;0.278;2023-04-03T13:32:55;0.70;;;0.50;;
56718;SDS011;42597;40.636;0.278;2023-04-03T13:37:55;1.10;;;0.50;;
56718;SDS011;42597;40.636;0.278;2023-04-03T13:40:22;0.60;;;0.43;;
56718;SDS011;42597;40.636;0.278;2023-04-03T13:42:57;2.63;;;0.77;;
56718;SDS011;42597;40.636;0.278;2023-04-03T13:45:25;0.85;;;0.40;;
56718;SDS011;42597;40.636;0.278;2023-04-03T13:48:09;1.05;;;0.75;;
56718;SDS011;42597;40.636;0.278;2023-04-03T13:51:04;1.25;;;0.60;;
56718;SDS011;42597;40.636;0.278;2023-04-03T13:53:46;1.42;;;0.80;;
56718;SDS011;42597;40.636;0.278;2023-04-03T13:56:31;4.13;;;0.75;;
56718;SDS011;42597;40.636;0.278;2023-04-03T14:01:40;3.83;;;0.95;;
56718;SDS011;42597;40.636;0.278;2023-04-03T14:04:12;1.42;;;0.65;;
56718;SDS011;42597;40.636;0.278;2023-04-03T14:06:42;1.20;;;0.75;;
56718;SDS011;42597;40.636;0.278;2023-04-03T14:09:08;3.47;;;0.80;;
56718;SDS011;42597;40.636;0.278;2023-04-03T14:11:34;1.02;;;0.52;;
56718;SDS011;42597;40.636;0.278;2023-04-03T14:14:02;1.73;;;0.60;;
56718;SDS011;42597;40.636;0.278;2023-04-03T14:16:32;2.53;;;0.65;;
56718;SDS011;42597;40.636;0.278;2023-04-03T14:19:02;0.95;;;0.50;;
56718;SDS011;42597;40.636;0.278;2023-04-03T14:21:28;1.73;;;0.60;;
56718;SDS011;42597;40.636;0.278;2023-04-03T14:23:54;6.20;;;0.73;;
56718;SDS011;42597;40.636;0.278;2023-04-03T14:26:21;0.80;;;0.73;;
56718;SDS011;42597;40.636;0.278;2023-04-03T14:28:49;5.72;;;1.13;;
56718;SDS011;42597;40.636;0.278;2023-04-03T14:31:18;2.30;;;1.10;;
56718;SDS011;42597;40.636;0.278;2023-04-03T14:33:44;3.22;;;1.20;;
56718;SDS011;42597;40.636;0.278;2023-04-03T14:38:38;4.70;;;1.77;;
56718;SDS011;42597;40.636;0.278;2023-04-03T14:41:04;1.63;;;1.00;;
56718;SDS011;42597;40.636;0.278;2023-04-03T14:43:29;4.82;;;1.52;;
56718;SDS011;42597;40.636;0.278;2023-04-03T14:45:55;3.55;;;1.20;;
56718;SDS011;42597;40.636;0.278;2023-04-03T14:48:23;2.40;;;0.82;;
56718;SDS011;42597;40.636;0.278;2023-04-03T14:50:51;4.20;;;1.27;;
56718;SDS011;42597;40.636;0.278;2023-04-03T14:53:19;3.13;;;0.80;;
56718;SDS011;42597;40.636;0.278;2023-04-03T14:55:51;2.03;;;1.00;;
56718;SDS011;42597;40.636;0.278;2023-04-03T14:58:17;3.85;;;1.63;;
56718;SDS011;42597;40.636;0.278;2023-04-03T15:00:45;4.82;;;1.02;;
56718;SDS011;42597;40.636;0.278;2023-04-03T15:03:12;6.50;;;1.90;;
56718;SDS011;42597;40.636;0.278;2023-04-03T15:05:43;1.90;;;1.27;;
56718;SDS011;42597;40.636;0.278;2023-04-03T15:10:48;2.25;;;0.80;;
56718;SDS011;42597;40.636;0.278;2023-04-03T15:13:14;2.58;;;0.98;;
56718;SDS011;42597;40.636;0.278;2023-04-03T15:15:40;2.42;;;0.98;;
56718;SDS011;42597;40.636;0.278;2023-04-03T15:18:07;1.70;;;0.90;;
56718;SDS011;42597;40.636;0.278;2023-04-03T15:20:39;2.15;;;1.17;;
56718;SDS011;42597;40.636;0.278;2023-04-03T15:23:04;1.05;;;0.70;;
56718;SDS011;42597;40.636;0.278;2023-04-03T15:25:31;2.50;;;0.90;;
56718;SDS011;42597;40.636;0.278;2023-04-03T15:27:57;3.35;;;1.00;;
56718;SDS011;42597;40.636;0.278;2023-04-03T15:30:24;1.00;;;0.80;;
56718;SDS011;42597;40.636;0.278;2023-04-03T15:32:50;2.10;;;1.02;;
56718;SDS011;42597;40.636;0.278;2023-04-03T15:35:16;2.70;;;1.85;;
56718;SDS011;42597;40.636;0.278;2023-04-03T15:37:42;2.50;;;0.77;;
56718;SDS011;42597;40.636;0.278;2023-04-03T15:40:08;4.60;;;1.00;;
56718;SDS011;42597;40.636;0.278;2023-04-03T15:42:34;2.00;;;0.93;;
56718;SDS011;42597;40.636;0.278;2023-04-03T15:45:00;6.95;;;1.10;;
56718;SDS011;42597;40.636;0.278;2023-04-03T15:47:26;2.17;;;1.10;;
56718;SDS011;42597;40.636;0.278;2023-04-03T15:49:53;2.97;;;0.98;;
56718;SDS011;42597;40.636;0.278;2023-04-03T15:52:20;2.47;;;1.10;;
56718;SDS011;42597;40.636;0.278;2023-04-03T15:54:45;3.05;;;0.75;;
56718;SDS011;42597;40.636;0.278;2023-04-03T15:57:11;2.83;;;0.85;;
56718;SDS011;42597;40.636;0.278;2023-04-03T15:59:37;3.95;;;1.10;;
56718;SDS011;42597;40.636;0.278;2023-04-03T16:02:04;2.95;;;0.90;;
56718;SDS011;42597;40.636;0.278;2023-04-03T16:04:34;2.65;;;0.82;;
56718;SDS011;42597;40.636;0.278;2023-04-03T16:07:01;3.67;;;0.88;;
56718;SDS011;42597;40.636;0.278;2023-04-03T16:09:28;1.67;;;0.55;;
56718;SDS011;42597;40.636;0.278;2023-04-03T16:11:54;2.72;;;0.80;;
56718;SDS011;42597;40.636;0.278;2023-04-03T16:14:21;2.17;;;0.68;;
56718;SDS011;42597;40.636;0.278;2023-04-03T16:16:47;3.10;;;0.68;;
56718;SDS011;42597;40.636;0.278;2023-04-03T16:19:13;1.98;;;0.93;;
56718;SDS011;42597;40.636;0.278;2023-04-03T16:21:38;5.45;;;1.50;;
56718;SDS011;42597;40.636;0.278;2023-04-03T16:24:04;3.13;;;0.80;;
56718;SDS011;42597;40.636;0.278;2023-04-03T16:26:31;1.83;;;0.98;;
56718;SDS011;42597;40.636;0.278;2023-04-03T16:28:57;4.57;;;1.45;;
56718;SDS011;42597;40.636;0.278;2023-04-03T16:31:22;2.92;;;0.80;;
56718;SDS011;42597;40.636;0.278;2023-04-03T16:33:50;3.40;;;0.93;;
56718;SDS011;42597;40.636;0.278;2023-04-03T16:36:16;6.43;;;1.08;;
56718;SDS011;42597;40.636;0.278;2023-04-03T16:38:42;1.75;;;0.93;;
56718;SDS011;42597;40.636;0.278;2023-04-03T16:41:07;6.50;;;1.17;;
56718;SDS011;42597;40.636;0.278;2023-04-03T16:43:33;2.97;;;1.17;;
56718;SDS011;42597;40.636;0.278;2023-04-03T16:46:00;8.23;;;1.70;;
56718;SDS011;42597;40.636;0.278;2023-04-03T16:48:27;7.55;;;1.30;;
56718;SDS011;42597;40.636;0.278;2023-04-03T16:50:54;1.27;;;0.65;;
56718;SDS011;42597;40.636;0.278;2023-04-03T16:53:23;2.58;;;1.00;;
56718;SDS011;42597;40.636;0.278;2023-04-03T16:55:49;4.50;;;1.20;;
56718;SDS011;42597;40.636;0.278;2023-04-03T16:58:16;1.52;;;0.90;;
56718;SDS011;42597;40.636;0.278;2023-04-03T17:00:42;4.95;;;1.10;;
56718;SDS011;42597;40.636;0.278;2023-04-03T17:03:08;3.72;;;0.93;;
56718;SDS011;42597;40.636;0.278;2023-04-03T17:05:34;4.25;;;1.40;;
56718;SDS011;42597;40.636;0.278;2023-04-03T17:08:00;2.78;;;1.00;;
56718;SDS011;42597;40.636;0.278;2023-04-03T17:10:27;2.67;;;1.42;;
56718;SDS011;42597;40.636;0.278;2023-04-03T17:12:53;2.72;;;1.30;;
56718;SDS011;42597;40.636;0.278;2023-04-03T17:15:19;4.80;;;1.10;;
56718;SDS011;42597;40.636;0.278;2023-04-03T17:17:45;3.80;;;0.85;;
56718;SDS011;42597;40.636;0.278;2023-04-03T17:20:12;3.15;;;1.13;;
56718;SDS011;42597;40.636;0.278;2023-04-03T17:22:38;2.17;;;0.93;;
56718;SDS011;42597;40.636;0.278;2023-04-03T17:25:04;2.20;;;0.73;;